Bei Facebook empfehlenBei Twitter postenGoogle plusPinterest

Das Wetter im Erzgebirge am 26.04.2017

Wetter und Klima am 26.04.2017 Holzhau im Erzgebirge (630m ü.NN)
Letzte gemessene Temperatur und Uhrzeit der Messung23:45:00 Uhr-1.50 °C
Temperatur (Maximum / Höchstwert) und Uhrzeit der Messung18:30:00 Uhr5.00 °C
Temperatur (Minimum / Tiefstwert) und Uhrzeit der Messung23:45:00-1.50 °C
Errechneter Absolutwert der Temperaturschwankungen zwischen Tmin und Tmax des Tages6.50 K
Errechnete Tagesmitteltemperatur2.09479 °C
Gesamt - Niederschlag des Tages (in flüssiger Form)3.63 Liter / m²
Luftdruck (Maximum / Höchstwert) und Zeitpunkt der Messung21:45:00 Uhr1009.20 hPa
Luftdruck (Minimum / Tiefstwert) und Zeitpunkt der Messung03:00:00 Uhr1004.60 hPa
Errechneter Absolutwert der Luftdruckschwankungen des Tages4.60 hPa
Höchste gemessene Windgeschwindigkeit und Uhrzeit der Messung15:00:00 Uhr4.32 km/h
Errechnete Windhäufigkeit in Relation zu den Messwerten des Tages4.16667 %
Niedrigste Windkühle (Windchill) und Zeitpunkt der Messung23:45:00 Uhr-1.50 °C
Taupunkt (Maximum / Höchstwert) und Uhrzeit der Messung18:30:00 Uhr2.00 °C
Taupunkt (Minimum / Tiefstwert) und Uhrzeit der Messung23:30:00-3.00 °C
Anzahl der automatisch eingelesenen Messwerte 96

Detaillierte Wetter- und Klima- Messwerte für den 26.04.2017 in Holzhau im Erzgebirge (630m ü.NN)
ZeitTemperaturLuftdruckRel. LuftfeuchteWindWindrichtungWindchillTaupunktNiederschlag l/m²
23:45:00-1.50 °C1008.80 hPa91.00 %-2.90 °C3.63
23:30:00-1.40 °C1008.80 hPa90.00 %-3.00 °C3.63
23:15:00-1.20 °C1008.70 hPa90.00 %-2.80 °C3.63
23:00:00-1.10 °C1008.80 hPa90.00 %-2.70 °C3.63
22:45:00-1.00 °C1008.80 hPa89.00 %-2.80 °C3.63
22:30:00-0.70 °C1009.00 hPa89.00 %-2.50 °C3.63
22:15:00-0.20 °C1008.90 hPa88.00 %-2.10 °C3.63
22:00:000.10 °C1008.90 hPa89.00 %-1.50 °C3.63
21:45:000.30 °C1009.20 hPa88.00 %-1.40 °C3.63
21:30:000.70 °C1008.70 hPa87.00 %-1.20 °C3.63
21:15:001.30 °C1008.60 hPa86.00 %-0.80 °C3.63
21:00:001.90 °C1008.60 hPa86.00 %-0.20 °C3.63
20:45:002.40 °C1008.50 hPa86.00 %0.30 °C3.63
20:30:002.70 °C1008.30 hPa85.00 %0.40 °C3.63
20:15:003.00 °C1008.20 hPa84.00 %0.60 °C3.63
20:00:003.30 °C1007.90 hPa83.00 %0.70 °C3.63
19:45:003.60 °C1007.90 hPa82.00 %0.80 °C3.63
19:30:003.90 °C1007.90 hPa82.00 %1.10 °C3.63
19:15:004.20 °C1008.00 hPa81.00 %1.20 °C3.63
19:00:004.50 °C1007.90 hPa81.00 %1.50 °C3.63
18:45:004.50 °C1007.90 hPa80.00 %1.40 °C3.63
18:30:005.00 °C1007.90 hPa81.00 %1.44 km/hOSO5.00 °C2.00 °C3.63
18:15:004.60 °C1007.80 hPa83.00 %2.00 °C3.63
18:00:004.20 °C1007.70 hPa84.00 %1.70 °C3.63
17:45:003.90 °C1007.80 hPa85.00 %1.60 °C3.63
17:30:003.60 °C1007.80 hPa85.00 %1.30 °C3.63
17:15:003.30 °C1007.80 hPa86.00 %1.20 °C3.63
17:00:003.40 °C1008.00 hPa85.00 %1.10 °C3.63
16:45:003.80 °C1007.60 hPa85.00 %1.50 °C3.63
16:30:004.20 °C1007.60 hPa85.00 %1.90 °C3.63
16:15:003.90 °C1007.50 hPa85.00 %1.60 °C3.63
16:00:003.70 °C1007.30 hPa86.00 %1.60 °C3.63
15:45:003.80 °C1007.70 hPa86.00 %1.70 °C3.63
15:30:003.60 °C1007.60 hPa87.00 %1.60 °C3.63
15:15:003.30 °C1007.30 hPa86.00 %1.20 °C3.63
15:00:003.60 °C1007.50 hPa86.00 %4.32 km/hW3.60 °C1.50 °C3.63
14:45:003.80 °C1007.80 hPa86.00 %1.70 °C3.63
14:30:003.90 °C1007.50 hPa85.00 %1.60 °C3.63
14:15:003.90 °C1007.40 hPa85.00 %1.60 °C3.63
14:00:003.80 °C1007.40 hPa86.00 %1.70 °C3.63
13:45:003.60 °C1007.60 hPa86.00 %1.50 °C3.11
13:30:002.90 °C1007.50 hPa85.00 %0.60 °C3.11
13:15:003.30 °C1007.60 hPa84.00 %1.08 km/hOSO3.30 °C0.90 °C3.11
13:00:003.80 °C1007.20 hPa85.00 %1.50 °C3.11
12:45:003.30 °C1007.00 hPa86.00 %1.20 °C3.11
12:30:002.90 °C1007.00 hPa86.00 %0.80 °C3.11
12:15:002.10 °C1006.80 hPa86.00 %0.00 °C3.11
12:00:001.80 °C1007.00 hPa87.00 %-0.10 °C2.59
11:45:001.80 °C1006.80 hPa86.00 %-0.30 °C2.59
11:30:002.50 °C1006.70 hPa86.00 %0.40 °C2.59
11:15:002.90 °C1006.70 hPa88.00 %1.10 °C2.07
11:00:002.50 °C1006.60 hPa88.00 %1.80 km/hW2.50 °C0.70 °C2.07
10:45:002.50 °C1006.50 hPa87.00 %0.60 °C2.07
10:30:002.30 °C1006.40 hPa87.00 %0.40 °C1.56
10:15:002.20 °C1006.70 hPa88.00 %0.40 °C1.04
10:00:001.90 °C1006.60 hPa87.00 %0.00 °C1.04
09:45:002.10 °C1006.70 hPa87.00 %0.20 °C0.52
09:30:002.20 °C1006.80 hPa87.00 %0.30 °C 
09:15:002.10 °C1006.50 hPa88.00 %0.30 °C 
09:00:001.80 °C1006.50 hPa88.00 %0.00 °C 
08:45:001.40 °C1006.10 hPa88.00 %-0.40 °C 
08:30:001.20 °C1006.00 hPa89.00 %-0.40 °C 
08:15:001.20 °C1005.90 hPa89.00 %-0.40 °C 
08:00:001.10 °C1005.80 hPa89.00 %-0.50 °C 
07:45:000.90 °C1005.50 hPa89.00 %-0.70 °C 
07:30:000.70 °C1005.60 hPa90.00 %-0.70 °C 
07:15:000.40 °C1005.60 hPa89.00 %-1.20 °C 
07:00:000.20 °C1005.40 hPa89.00 %-1.40 °C 
06:45:000.10 °C1005.40 hPa89.00 %-1.50 °C 
06:30:000.10 °C1005.20 hPa89.00 %-1.50 °C 
06:15:000.10 °C1005.10 hPa89.00 %-1.50 °C 
06:00:000.10 °C1005.20 hPa89.00 %-1.50 °C 
05:45:000.10 °C1005.20 hPa89.00 %-1.50 °C 
05:30:000.20 °C1005.30 hPa88.00 %-1.50 °C 
05:15:000.30 °C1005.30 hPa87.00 %-1.60 °C 
05:00:000.50 °C1005.10 hPa85.00 %-1.70 °C 
04:45:000.70 °C1005.10 hPa84.00 %-1.70 °C 
04:30:000.90 °C1005.00 hPa83.00 %-1.70 °C 
04:15:001.20 °C1005.00 hPa83.00 %-1.40 °C 
04:00:001.60 °C1005.30 hPa83.00 %-1.00 °C 
03:45:001.70 °C1005.20 hPa83.00 %-0.90 °C 
03:30:001.80 °C1005.00 hPa82.00 %-0.90 °C 
03:15:001.80 °C1004.80 hPa82.00 %-0.90 °C 
03:00:001.90 °C1004.60 hPa82.00 %-0.80 °C 
02:45:001.90 °C1004.60 hPa82.00 %-0.80 °C 
02:30:001.90 °C1004.60 hPa81.00 %-1.00 °C 
02:15:002.10 °C1004.80 hPa81.00 %-0.80 °C 
02:00:002.10 °C1004.80 hPa81.00 %-0.80 °C 
01:45:002.20 °C1004.80 hPa81.00 %-0.70 °C 
01:30:002.30 °C1004.90 hPa81.00 %-0.60 °C 
01:15:002.40 °C1004.90 hPa82.00 %-0.40 °C 
01:00:002.60 °C1004.90 hPa82.00 %-0.20 °C 
00:45:002.60 °C1005.00 hPa83.00 %0.00 °C 
00:30:002.70 °C1005.00 hPa84.00 %0.30 °C 
00:15:002.60 °C1004.90 hPa84.00 %0.20 °C 
00:00:002.40 °C1005.10 hPa83.00 %-0.20 °C 

Permanenter Link zu dieser Seite: Wetter im Erzgebirge am 26.04.2017
Performance-Info: Die Erstellung der Seite / Statistik(en) / Tabelle(n) erforderte 5 Datenbankserver-Abfrage(n) und dauerte 97 Millisekunden. (Dieser Messwert ist von der Gesamt-Auslastung des Servers abhängig.)
Erzgebirge - Wetter | Erzgebirge - Wetter (Mobilgeräte) | Komplette Klimadatenbank